createdAt,value
2023-04-05T05:09:21.683Z,99789.06
2023-04-05T05:11:58.960Z,99784.73
2023-04-05T05:14:31.948Z,99786.23
2023-04-05T05:17:05.407Z,99789.04
2023-04-05T05:19:56.588Z,99792.65
2023-04-05T05:23:06.461Z,99798.63
2023-04-05T05:26:24.140Z,99790.39
2023-04-05T05:29:09.173Z,99791.88
2023-04-05T05:31:59.238Z,99791.80
2023-04-05T05:34:37.022Z,99787.19
2023-04-05T05:37:31.665Z,99779.31
2023-04-05T05:40:08.187Z,99783.33
2023-04-05T05:42:48.647Z,99782.55
2023-04-05T05:45:27.597Z,99786.25
2023-04-05T05:48:03.610Z,99785.41
2023-04-05T05:50:34.000Z,99782.25
2023-04-05T05:53:15.939Z,99780.67
2023-04-05T05:55:52.026Z,99777.86
2023-04-05T05:58:31.056Z,99778.45
2023-04-05T06:01:11.612Z,99779.66
2023-04-05T06:03:40.072Z,99778.30
2023-04-05T06:06:10.936Z,99777.36
2023-04-05T06:08:38.336Z,99778.72
2023-04-05T06:11:26.476Z,99779.61
2023-04-05T06:13:56.363Z,99780.21
2023-04-05T06:16:30.456Z,99779.21
2023-04-05T06:18:57.341Z,99774.34
2023-04-05T06:21:27.662Z,99776.48
2023-04-05T06:23:56.924Z,99775.70
2023-04-05T06:26:31.860Z,99773.69
2023-04-05T06:29:02.199Z,99770.20
2023-04-05T06:31:34.214Z,99768.17
2023-04-05T06:34:03.599Z,99770.36
2023-04-05T06:36:34.687Z,99775.52
2023-04-05T06:39:04.249Z,99778.88
2023-04-05T06:41:31.286Z,99775.31
2023-04-05T06:43:58.709Z,99775.52
2023-04-05T06:46:29.010Z,99781.02
2023-04-05T06:49:03.741Z,99783.67
2023-04-05T06:51:37.160Z,99783.36
2023-04-05T06:54:11.483Z,99780.20
2023-04-05T06:56:41.194Z,99781.82
2023-04-05T06:59:32.725Z,99778.14
2023-04-05T07:02:03.241Z,99777.77
2023-04-05T07:05:00.801Z,99780.04
2023-04-05T07:07:27.957Z,99778.83
2023-04-05T07:10:32.075Z,99781.34
2023-04-05T07:12:59.842Z,99785.94
2023-04-05T07:15:36.777Z,99783.27
2023-04-05T07:18:06.893Z,99785.45
2023-04-05T07:20:59.490Z,99785.03
2023-04-05T07:23:43.228Z,99777.60
2023-04-05T07:26:36.491Z,99777.64
2023-04-05T07:29:04.349Z,99777.92
2023-04-05T07:31:45.258Z,99783.27
2023-04-05T07:34:15.758Z,99778.68
2023-04-05T07:36:46.432Z,99771.60
2023-04-05T07:39:36.685Z,99766.55
2023-04-05T07:42:06.804Z,99756.60
2023-04-05T07:45:05.370Z,99755.75
2023-04-05T07:47:42.698Z,99753.26
2023-04-05T07:50:45.610Z,99752.41
2023-04-05T07:53:14.200Z,99754.64
2023-04-05T07:55:44.158Z,99754.02
2023-04-05T07:58:13.807Z,99762.23
2023-04-05T08:01:03.097Z,99766.20
2023-04-05T08:03:58.073Z,99771.54
2023-04-05T08:06:57.405Z,99773.67
2023-04-05T08:09:33.641Z,99767.44
2023-04-05T08:12:02.262Z,99760.40
2023-04-05T08:14:32.385Z,99758.77
2023-04-05T08:17:14.521Z,99760.66
2023-04-05T08:19:57.291Z,99766.02
2023-04-05T08:22:30.048Z,99763.93
2023-04-05T08:25:30.145Z,99767.88
2023-04-05T08:28:22.691Z,99767.06
2023-04-05T08:30:54.818Z,99766.70
2023-04-05T08:33:27.801Z,99767.95
2023-04-05T08:36:14.971Z,99767.23
2023-04-05T08:38:45.754Z,99765.65
2023-04-05T08:41:20.604Z,99765.68
2023-04-05T08:44:23.110Z,99770.51
2023-04-05T08:47:02.989Z,99774.02
2023-04-05T08:49:54.073Z,99776.56
2023-04-05T08:52:28.326Z,99773.70
2023-04-05T08:55:16.147Z,99773.77
2023-04-05T08:57:51.956Z,99771.73
2023-04-05T09:00:21.895Z,99773.33
2023-04-05T09:03:07.772Z,99772.34
2023-04-05T09:05:45.232Z,99767.09
2023-04-05T09:08:22.402Z,99769.54
2023-04-05T09:11:06.256Z,99770.42
2023-04-05T09:13:42.413Z,99770.41
2023-04-05T09:16:13.594Z,99770.53
2023-04-05T09:18:43.114Z,99767.38
2023-04-05T09:21:11.919Z,99775.12
2023-04-05T09:23:53.537Z,99774.02
2023-04-05T09:26:39.338Z,99773.88
2023-04-05T09:29:28.602Z,99771.45
2023-04-05T09:31:55.386Z,99769.43
2023-04-05T09:34:24.607Z,99764.73
2023-04-05T09:36:54.167Z,99760.19
2023-04-05T09:39:31.642Z,99754.16
2023-04-05T09:42:12.503Z,99743.42
2023-04-05T09:45:04.835Z,99745.83
2023-04-05T09:47:41.762Z,99748.20
2023-04-05T09:50:16.040Z,99753.70
2023-04-05T09:52:43.875Z,99754.48
2023-04-05T09:55:11.120Z,99753.81
2023-04-05T09:57:39.406Z,99758.42
2023-04-05T10:00:17.496Z,99753.98
2023-04-05T10:02:47.088Z,99756.08
2023-04-05T10:05:16.670Z,99759.06
2023-04-05T10:07:47.285Z,99757.91
2023-04-05T10:10:15.808Z,99761.91
2023-04-05T10:12:44.993Z,99761.30
2023-04-05T10:15:14.162Z,99758.21
2023-04-05T10:18:12.382Z,99760.20
2023-04-05T10:20:49.769Z,99763.07
2023-04-05T10:23:25.986Z,99764.61
2023-04-05T10:25:53.511Z,99763.06
2023-04-05T10:28:34.135Z,99758.65
2023-04-05T10:31:38.277Z,99757.14
2023-04-05T10:34:12.671Z,99754.91
2023-04-05T10:36:48.603Z,99745.64
2023-04-05T10:39:25.741Z,99740.59
2023-04-05T10:42:13.559Z,99740.52
2023-04-05T10:44:41.132Z,99736.58
2023-04-05T10:47:13.349Z,99729.97
2023-04-05T10:49:46.767Z,99735.42
2023-04-05T10:52:14.207Z,99736.61
2023-04-05T10:54:41.806Z,99742.42
2023-04-05T10:57:09.893Z,99738.43
2023-04-05T10:59:45.662Z,99740.52
2023-04-05T11:02:14.437Z,99743.80
2023-04-05T11:04:42.767Z,99743.75
2023-04-05T11:07:17.129Z,99735.89
2023-04-05T11:09:56.124Z,99739.98
2023-04-05T11:12:46.431Z,99737.98
2023-04-05T11:15:28.791Z,99742.60
2023-04-05T11:18:06.338Z,99743.52
2023-04-05T11:21:06.472Z,99743.35
2023-04-05T11:24:03.773Z,99750.86
2023-04-05T11:26:33.683Z,99744.88
2023-04-05T11:29:00.692Z,99751.79
2023-04-05T11:31:28.250Z,99748.14
2023-04-05T11:34:09.453Z,99749.55
2023-04-05T11:36:45.417Z,99751.60
2023-04-05T11:39:18.727Z,99750.23
2023-04-05T11:42:04.593Z,99741.23
2023-04-05T11:44:48.638Z,99744.27
2023-04-05T11:47:21.200Z,99740.14
2023-04-05T11:49:51.371Z,99740.80
2023-04-05T11:52:20.062Z,99740.56
2023-04-05T11:54:47.143Z,99740.08
2023-04-05T11:57:19.242Z,99736.12
2023-04-05T11:59:46.773Z,99744.66
2023-04-05T12:02:13.832Z,99744.14
2023-04-05T12:04:41.188Z,99741.33
2023-04-05T12:07:12.037Z,99750.56
2023-04-05T12:10:01.385Z,99746.70
2023-04-05T12:12:40.971Z,99748.49
2023-04-05T12:15:10.188Z,99745.59
2023-04-05T12:17:50.837Z,99744.67
2023-04-05T12:20:21.518Z,99739.02
2023-04-05T12:22:49.150Z,99736.68
2023-04-05T12:25:17.009Z,99737.59
2023-04-05T12:27:45.324Z,99735.82
2023-04-05T12:30:21.060Z,99735.10
2023-04-05T12:32:51.202Z,99735.66
2023-04-05T12:35:24.067Z,99725.52
2023-04-05T12:37:51.433Z,99724.87
2023-04-05T12:40:22.341Z,99718.95
2023-04-05T12:42:49.930Z,99720.41
2023-04-05T12:45:18.314Z,99720.16
2023-04-05T12:47:56.959Z,99713.36
2023-04-05T12:50:28.303Z,99714.09
2023-04-05T12:52:59.981Z,99708.98
2023-04-05T12:55:28.425Z,99698.14
2023-04-05T12:58:01.099Z,99697.70
2023-04-05T13:00:29.465Z,99697.98
2023-04-05T13:02:58.094Z,99689.70
2023-04-05T13:05:27.457Z,99690.64
2023-04-05T13:07:55.577Z,99689.48
2023-04-05T13:10:23.198Z,99686.94
2023-04-05T13:12:50.788Z,99691.11
2023-04-05T13:16:40.028Z,99690.23
2023-04-05T13:19:08.559Z,99696.45
2023-04-05T13:21:37.623Z,99692.98
2023-04-05T13:24:06.090Z,99686.50
2023-04-05T13:26:37.245Z,99686.09
2023-04-05T13:29:07.781Z,99682.91
2023-04-05T13:31:36.586Z,99681.04
2023-04-05T13:34:04.956Z,99682.70
2023-04-05T13:39:36.524Z,99682.98
2023-04-05T13:42:04.740Z,99679.64
2023-04-05T13:44:34.065Z,99673.38
2023-04-05T13:47:02.297Z,99671.73
2023-04-05T13:49:31.034Z,99668.35
2023-04-05T13:51:59.279Z,99673.08
2023-04-05T13:54:27.667Z,99672.27
2023-04-05T13:56:59.318Z,99674.69
2023-04-05T13:59:29.378Z,99679.98
2023-04-05T14:01:58.286Z,99682.43
2023-04-05T14:04:26.739Z,99673.52
2023-04-05T14:06:55.839Z,99679.64
2023-04-05T14:09:25.015Z,99673.44
2023-04-05T14:11:54.512Z,99681.52
2023-04-05T14:14:23.954Z,99685.55
2023-04-05T14:16:56.652Z,99690.63
2023-04-05T14:19:27.519Z,99689.55
2023-04-05T14:21:57.334Z,99685.02
2023-04-05T14:24:31.692Z,99685.60
2023-04-05T14:27:01.402Z,99679.89
2023-04-05T14:29:29.796Z,99681.02
2023-04-05T14:31:59.856Z,99672.92
2023-04-05T14:34:28.934Z,99661.08
2023-04-05T14:36:58.562Z,99662.98
2023-04-05T14:39:27.584Z,99664.67
2023-04-05T14:41:57.510Z,99657.58
2023-04-05T14:44:27.712Z,99654.56
2023-04-05T14:46:56.622Z,99650.11
2023-04-05T14:49:24.954Z,99657.16
2023-04-05T14:51:53.471Z,99662.36
2023-04-05T14:54:22.777Z,99662.77
2023-04-05T14:56:51.170Z,99660.49
2023-04-05T14:59:19.525Z,99665.22
2023-04-05T15:01:53.651Z,99660.02
2023-04-05T15:04:22.432Z,99660.36
2023-04-05T15:06:50.983Z,99661.99
2023-04-05T15:09:19.682Z,99659.00
2023-04-05T15:11:48.452Z,99656.98
2023-04-05T15:14:24.857Z,99659.36
2023-04-05T15:17:00.865Z,99658.90
2023-04-05T15:19:31.870Z,99656.90
2023-04-05T15:22:00.545Z,99665.14
2023-04-05T15:24:29.805Z,99668.58
2023-04-05T15:27:02.576Z,99667.42
2023-04-05T15:29:35.221Z,99664.73
2023-04-05T15:32:05.639Z,99678.48
2023-04-05T15:34:33.967Z,99675.52
2023-04-05T15:37:05.955Z,99674.34
2023-04-05T15:39:34.150Z,99675.14
2023-04-05T15:42:03.244Z,99682.02
2023-04-05T15:44:32.848Z,99684.57
2023-04-05T15:47:01.186Z,99686.20
2023-04-05T15:49:29.843Z,99677.17
2023-04-05T15:51:59.809Z,99677.44
2023-04-05T15:54:28.420Z,99670.52
2023-04-05T15:56:58.356Z,99661.66
2023-04-05T15:59:27.753Z,99664.73
2023-04-05T16:01:56.418Z,99664.09
2023-04-05T16:04:25.271Z,99667.94
2023-04-05T16:06:54.886Z,99669.91
2023-04-05T16:09:23.714Z,99668.34
2023-04-05T16:11:51.951Z,99669.00
2023-04-05T16:14:24.793Z,99671.17
2023-04-05T16:16:54.418Z,99673.40
2023-04-05T16:19:23.594Z,99668.79
2023-04-05T16:21:54.585Z,99671.61
2023-04-05T16:24:23.482Z,99664.84
2023-04-05T16:26:51.756Z,99660.57
2023-04-05T16:29:20.137Z,99661.55
2023-04-05T16:31:48.979Z,99661.31
2023-04-05T16:34:18.479Z,99659.08
2023-04-05T16:36:47.014Z,99656.73
2023-04-05T16:39:15.615Z,99653.88
2023-04-05T16:41:43.881Z,99655.02
2023-04-05T16:44:15.244Z,99657.87
2023-04-05T16:46:46.412Z,99661.80
2023-04-05T16:49:18.121Z,99658.30
2023-04-05T16:51:47.145Z,99668.29
2023-04-05T16:54:16.876Z,99674.65
2023-04-05T16:56:45.129Z,99672.87
2023-04-05T16:59:15.791Z,99669.76
2023-04-05T17:01:44.114Z,99666.07
2023-04-05T17:04:13.645Z,99665.45
2023-04-05T17:06:42.624Z,99668.77
2023-04-05T17:09:10.729Z,99668.86
2023-04-05T17:11:39.418Z,99664.15
2023-04-05T17:14:10.958Z,99666.48
2023-04-05T17:16:41.075Z,99666.88
2023-04-05T17:19:09.654Z,99662.97
2023-04-05T17:21:39.070Z,99666.60
2023-04-05T17:24:08.261Z,99673.51
2023-04-05T17:26:37.401Z,99675.02
2023-04-05T17:29:07.576Z,99684.87
2023-04-05T17:31:36.263Z,99687.29
2023-04-05T17:34:04.954Z,99691.87
2023-04-05T17:36:34.760Z,99695.63
2023-04-05T17:39:03.367Z,99697.91
2023-04-05T17:41:32.247Z,99704.11
2023-04-05T17:44:00.425Z,99703.89
2023-04-05T17:46:39.616Z,99709.80
2023-04-05T17:49:11.618Z,99704.38
2023-04-05T17:51:40.363Z,99705.12
2023-04-05T17:54:08.989Z,99701.44
2023-04-05T17:56:38.490Z,99699.49
2023-04-05T17:59:08.051Z,99698.85
2023-04-05T18:01:37.936Z,99696.90
2023-04-05T18:04:08.269Z,99698.00
2023-04-05T18:06:38.457Z,99697.42
2023-04-05T18:09:08.882Z,99688.31
2023-04-05T18:11:37.673Z,99689.94
2023-04-05T18:14:06.180Z,99688.67
2023-04-05T18:16:38.368Z,99691.92
2023-04-05T18:19:08.043Z,99694.61
2023-04-05T18:21:36.617Z,99690.16
2023-04-05T18:24:05.781Z,99688.55
2023-04-05T18:26:36.673Z,99684.61
2023-04-05T18:29:10.563Z,99692.54
2023-04-05T18:31:40.484Z,99691.59
2023-04-05T18:34:09.058Z,99686.35
2023-04-05T18:36:39.941Z,99684.15
2023-04-05T18:39:08.868Z,99684.64
2023-04-05T18:41:37.784Z,99679.66
2023-04-05T18:44:06.954Z,99675.73
2023-04-05T18:46:35.502Z,99674.75
2023-04-05T18:49:04.111Z,99673.14
2023-04-05T18:51:33.693Z,99668.88
2023-04-05T18:54:03.131Z,99671.79
2023-04-05T18:56:31.707Z,99672.78
2023-04-05T18:59:00.338Z,99673.46
2023-04-05T19:01:32.260Z,99673.98
2023-04-05T19:04:00.829Z,99672.65
2023-04-05T19:06:31.187Z,99669.57
2023-04-05T19:09:00.094Z,99666.60
2023-04-05T19:11:28.575Z,99665.41
2023-04-05T19:14:04.981Z,99663.36
2023-04-05T19:16:46.975Z,99653.73
2023-04-05T19:19:16.455Z,99654.39
2023-04-05T19:21:45.360Z,99650.21
2023-04-05T19:24:14.325Z,99649.30
2023-04-05T19:26:43.257Z,99643.49
2023-04-05T19:29:11.494Z,99638.55
2023-04-05T19:31:41.037Z,99646.80
2023-04-05T19:34:09.787Z,99636.92
2023-04-05T19:36:38.482Z,99641.48
2023-04-05T19:39:07.749Z,99640.92
2023-04-05T19:44:50.952Z,99639.16
2023-04-05T19:47:21.260Z,99641.27
2023-04-05T19:49:52.764Z,99635.14
2023-04-05T19:52:45.811Z,99626.27
2023-04-05T19:55:27.874Z,99626.77
2023-04-05T19:57:56.827Z,99621.77
2023-04-05T20:00:54.403Z,99613.86
2023-04-05T20:03:39.841Z,99613.20
2023-04-05T20:06:14.757Z,99615.22
2023-04-05T20:08:44.898Z,99612.18
2023-04-05T20:11:13.139Z,99609.85
2023-04-05T20:13:48.992Z,99608.79
2023-04-05T20:16:20.886Z,99606.23
2023-04-05T20:18:49.224Z,99609.70
2023-04-05T20:21:21.189Z,99607.16
2023-04-05T20:23:49.558Z,99607.20
2023-04-05T20:26:18.040Z,99600.57
2023-04-05T20:28:54.249Z,99603.80
2023-04-05T20:31:26.371Z,99598.15
2023-04-05T20:33:58.238Z,99597.14
2023-04-05T20:36:32.886Z,99594.13
2023-04-05T20:39:01.987Z,99581.56
2023-04-05T20:41:31.980Z,99583.98
2023-04-05T20:44:00.452Z,99577.70
2023-04-05T20:46:28.955Z,99574.13
2023-04-05T20:48:58.749Z,99571.83
2023-04-05T20:51:27.023Z,99569.92
2023-04-05T20:53:55.812Z,99566.66
2023-04-05T20:56:24.008Z,99560.21
2023-04-05T20:58:52.729Z,99558.30
2023-04-05T21:01:20.892Z,99555.20
2023-04-05T21:03:55.536Z,99553.39
2023-04-05T21:06:24.370Z,99552.20
2023-04-05T21:08:52.639Z,99546.06
2023-04-05T21:11:21.653Z,99539.81
2023-04-05T21:13:50.439Z,99537.73
2023-04-05T21:16:18.536Z,99537.45
2023-04-05T21:18:46.815Z,99536.45
2023-04-05T21:21:14.841Z,99533.75
2023-04-05T21:23:42.918Z,99531.98
2023-04-05T21:26:11.293Z,99526.50
2023-04-05T21:28:39.367Z,99523.77
2023-04-05T21:31:07.770Z,99521.11
2023-04-05T21:33:36.740Z,99522.55
2023-04-05T21:36:05.062Z,99517.48
2023-04-05T21:38:33.565Z,99516.48
2023-04-05T21:41:01.649Z,99514.63
2023-04-05T21:43:31.063Z,99514.31
2023-04-05T21:45:59.197Z,99512.98
2023-04-05T21:48:28.475Z,99508.77
2023-04-05T21:50:58.522Z,99503.23
2023-04-05T21:53:26.868Z,99503.61
2023-04-05T21:55:54.997Z,99497.86
2023-04-05T21:58:26.863Z,99495.84
2023-04-05T22:00:55.733Z,99495.98
2023-04-05T22:03:24.413Z,99502.32
2023-04-05T22:05:52.992Z,99507.96
2023-04-05T22:08:21.708Z,99510.34
2023-04-05T22:10:50.067Z,99512.39
2023-04-05T22:13:19.593Z,99515.83
2023-04-05T22:15:48.143Z,99511.20
2023-04-05T22:18:16.461Z,99506.55
2023-04-05T22:20:45.299Z,99500.75
2023-04-05T22:23:13.421Z,99498.55
2023-04-05T22:25:42.208Z,99493.83
2023-04-05T22:28:10.978Z,99491.07
2023-04-05T22:30:44.323Z,99491.90
2023-04-05T22:33:13.491Z,99489.40
2023-04-05T22:35:42.403Z,99487.93
2023-04-05T22:38:13.250Z,99485.27
2023-04-05T22:40:41.557Z,99482.55
2023-04-05T22:43:10.023Z,99479.57
2023-04-05T22:45:38.848Z,99478.71
2023-04-05T22:48:07.389Z,99476.44
2023-04-05T22:50:36.902Z,99481.04
2023-04-05T22:53:05.700Z,99479.43
2023-04-05T22:55:40.152Z,99478.15
2023-04-05T22:58:08.281Z,99478.64
2023-04-05T23:00:36.761Z,99475.44
2023-04-05T23:03:05.898Z,99469.19
2023-04-05T23:05:36.968Z,99469.50
2023-04-05T23:08:05.634Z,99469.94
2023-04-05T23:10:33.729Z,99467.71
2023-04-05T23:13:03.633Z,99464.12
2023-04-05T23:15:32.294Z,99462.38
2023-04-05T23:18:02.533Z,99459.61
2023-04-05T23:20:31.112Z,99457.63
2023-04-05T23:22:59.154Z,99453.38
2023-04-05T23:25:28.168Z,99455.77
2023-04-05T23:27:56.765Z,99449.35
2023-04-05T23:30:28.215Z,99454.54
2023-04-05T23:33:01.957Z,99449.79
2023-04-05T23:35:30.264Z,99450.95
2023-04-05T23:37:58.698Z,99449.04
2023-04-05T23:40:27.581Z,99446.72
2023-04-05T23:42:55.774Z,99444.34
2023-04-05T23:45:25.048Z,99444.17
2023-04-05T23:47:58.929Z,99438.86
2023-04-05T23:50:27.344Z,99442.86
2023-04-05T23:52:55.673Z,99441.65
2023-04-05T23:55:25.578Z,99438.29
2023-04-05T23:57:56.061Z,99434.90
